sensor_id;sensor_type;location;lat;lon;timestamp;P1;durP1;ratioP1;P2;durP2;ratioP2
76854;SDS011;66343;44.588;33.450;2023-07-30T00:01:43;9.82;;;5.00;;
76854;SDS011;66343;44.588;33.450;2023-07-30T00:04:17;9.95;;;4.38;;
76854;SDS011;66343;44.588;33.450;2023-07-30T00:06:51;10.02;;;4.57;;
76854;SDS011;66343;44.588;33.450;2023-07-30T00:09:21;8.50;;;4.13;;
76854;SDS011;66343;44.588;33.450;2023-07-30T00:11:54;9.30;;;4.32;;
76854;SDS011;66343;44.588;33.450;2023-07-30T00:14:26;10.07;;;3.80;;
76854;SDS011;66343;44.588;33.450;2023-07-30T00:16:54;10.93;;;3.63;;
76854;SDS011;66343;44.588;33.450;2023-07-30T00:19:27;8.35;;;3.97;;
76854;SDS011;66343;44.588;33.450;2023-07-30T00:21:56;9.38;;;3.45;;
76854;SDS011;66343;44.588;33.450;2023-07-30T00:24:30;9.55;;;3.88;;
76854;SDS011;66343;44.588;33.450;2023-07-30T00:26:59;8.43;;;3.88;;
76854;SDS011;66343;44.588;33.450;2023-07-30T00:29:28;9.10;;;3.58;;
76854;SDS011;66343;44.588;33.450;2023-07-30T00:31:58;7.60;;;3.15;;
76854;SDS011;66343;44.588;33.450;2023-07-30T00:34:29;7.30;;;3.15;;
76854;SDS011;66343;44.588;33.450;2023-07-30T00:37:05;7.65;;;3.05;;
76854;SDS011;66343;44.588;33.450;2023-07-30T00:39:38;7.32;;;3.10;;
76854;SDS011;66343;44.588;33.450;2023-07-30T00:42:12;7.88;;;3.13;;
76854;SDS011;66343;44.588;33.450;2023-07-30T00:44:43;8.20;;;3.45;;
76854;SDS011;66343;44.588;33.450;2023-07-30T00:47:12;8.45;;;3.35;;
76854;SDS011;66343;44.588;33.450;2023-07-30T00:49:41;8.73;;;3.28;;
76854;SDS011;66343;44.588;33.450;2023-07-30T00:52:16;7.63;;;3.20;;
76854;SDS011;66343;44.588;33.450;2023-07-30T00:54:47;8.80;;;3.10;;
76854;SDS011;66343;44.588;33.450;2023-07-30T00:57:19;6.13;;;2.35;;
76854;SDS011;66343;44.588;33.450;2023-07-30T00:59:51;7.05;;;2.58;;
76854;SDS011;66343;44.588;33.450;2023-07-30T01:02:23;8.57;;;2.75;;
76854;SDS011;66343;44.588;33.450;2023-07-30T01:04:54;8.30;;;2.85;;
76854;SDS011;66343;44.588;33.450;2023-07-30T01:07:27;6.80;;;2.55;;
76854;SDS011;66343;44.588;33.450;2023-07-30T01:10:02;6.30;;;2.42;;
76854;SDS011;66343;44.588;33.450;2023-07-30T01:12:34;7.55;;;2.60;;
76854;SDS011;66343;44.588;33.450;2023-07-30T01:15:05;6.50;;;2.92;;
76854;SDS011;66343;44.588;33.450;2023-07-30T01:17:35;6.00;;;2.40;;
76854;SDS011;66343;44.588;33.450;2023-07-30T01:20:07;5.72;;;2.22;;
76854;SDS011;66343;44.588;33.450;2023-07-30T01:22:36;7.32;;;2.42;;
76854;SDS011;66343;44.588;33.450;2023-07-30T01:25:05;6.78;;;2.30;;
76854;SDS011;66343;44.588;33.450;2023-07-30T01:30:15;5.82;;;2.00;;
76854;SDS011;66343;44.588;33.450;2023-07-30T01:32:52;5.65;;;2.25;;
76854;SDS011;66343;44.588;33.450;2023-07-30T01:35:30;6.18;;;2.55;;
76854;SDS011;66343;44.588;33.450;2023-07-30T01:38:04;6.53;;;2.80;;
76854;SDS011;66343;44.588;33.450;2023-07-30T01:40:40;5.95;;;2.45;;
76854;SDS011;66343;44.588;33.450;2023-07-30T01:43:09;6.25;;;2.70;;
76854;SDS011;66343;44.588;33.450;2023-07-30T01:45:38;5.25;;;2.28;;
76854;SDS011;66343;44.588;33.450;2023-07-30T01:48:11;5.65;;;2.30;;
76854;SDS011;66343;44.588;33.450;2023-07-30T01:50:43;8.13;;;2.60;;
76854;SDS011;66343;44.588;33.450;2023-07-30T01:53:19;8.63;;;2.42;;
76854;SDS011;66343;44.588;33.450;2023-07-30T01:55:51;6.80;;;2.40;;
76854;SDS011;66343;44.588;33.450;2023-07-30T01:58:20;5.78;;;2.55;;
76854;SDS011;66343;44.588;33.450;2023-07-30T02:00:51;8.52;;;2.75;;
76854;SDS011;66343;44.588;33.450;2023-07-30T02:03:22;6.55;;;2.63;;
76854;SDS011;66343;44.588;33.450;2023-07-30T02:05:53;5.70;;;2.20;;
76854;SDS011;66343;44.588;33.450;2023-07-30T02:08:22;6.47;;;2.30;;
76854;SDS011;66343;44.588;33.450;2023-07-30T02:11:09;7.20;;;2.38;;
76854;SDS011;66343;44.588;33.450;2023-07-30T02:13:43;5.07;;;2.10;;
76854;SDS011;66343;44.588;33.450;2023-07-30T02:16:15;6.43;;;2.22;;
76854;SDS011;66343;44.588;33.450;2023-07-30T02:18:44;5.50;;;2.15;;
76854;SDS011;66343;44.588;33.450;2023-07-30T02:21:20;4.90;;;1.60;;
76854;SDS011;66343;44.588;33.450;2023-07-30T02:23:51;5.85;;;2.22;;
76854;SDS011;66343;44.588;33.450;2023-07-30T02:26:20;6.65;;;2.50;;
76854;SDS011;66343;44.588;33.450;2023-07-30T02:28:53;5.60;;;2.53;;
76854;SDS011;66343;44.588;33.450;2023-07-30T02:31:29;6.70;;;2.60;;
76854;SDS011;66343;44.588;33.450;2023-07-30T02:34:03;8.60;;;3.42;;
76854;SDS011;66343;44.588;33.450;2023-07-30T02:36:37;7.18;;;2.80;;
76854;SDS011;66343;44.588;33.450;2023-07-30T02:39:06;6.88;;;3.25;;
76854;SDS011;66343;44.588;33.450;2023-07-30T02:41:38;7.18;;;2.72;;
76854;SDS011;66343;44.588;33.450;2023-07-30T02:44:09;8.57;;;2.83;;
76854;SDS011;66343;44.588;33.450;2023-07-30T02:46:39;8.00;;;2.38;;
76854;SDS011;66343;44.588;33.450;2023-07-30T02:49:17;6.10;;;2.40;;
76854;SDS011;66343;44.588;33.450;2023-07-30T02:51:46;5.35;;;2.20;;
76854;SDS011;66343;44.588;33.450;2023-07-30T02:54:16;5.53;;;2.20;;
76854;SDS011;66343;44.588;33.450;2023-07-30T02:56:47;5.93;;;2.38;;
76854;SDS011;66343;44.588;33.450;2023-07-30T02:59:24;5.50;;;2.00;;
76854;SDS011;66343;44.588;33.450;2023-07-30T03:02:02;6.05;;;2.30;;
76854;SDS011;66343;44.588;33.450;2023-07-30T03:04:37;5.47;;;2.15;;
76854;SDS011;66343;44.588;33.450;2023-07-30T03:07:09;6.72;;;2.40;;
76854;SDS011;66343;44.588;33.450;2023-07-30T03:09:40;5.97;;;1.98;;
76854;SDS011;66343;44.588;33.450;2023-07-30T03:12:09;4.35;;;1.95;;
76854;SDS011;66343;44.588;33.450;2023-07-30T03:14:41;5.45;;;2.00;;
76854;SDS011;66343;44.588;33.450;2023-07-30T03:17:10;5.15;;;1.75;;
76854;SDS011;66343;44.588;33.450;2023-07-30T03:19:39;5.93;;;2.03;;
76854;SDS011;66343;44.588;33.450;2023-07-30T03:22:10;7.25;;;2.15;;
76854;SDS011;66343;44.588;33.450;2023-07-30T03:24:47;6.55;;;1.80;;
76854;SDS011;66343;44.588;33.450;2023-07-30T03:27:20;4.63;;;1.80;;
76854;SDS011;66343;44.588;33.450;2023-07-30T03:29:50;7.43;;;2.20;;
76854;SDS011;66343;44.588;33.450;2023-07-30T03:32:20;7.18;;;2.00;;
76854;SDS011;66343;44.588;33.450;2023-07-30T03:34:51;6.65;;;2.30;;
76854;SDS011;66343;44.588;33.450;2023-07-30T03:37:20;5.03;;;1.70;;
76854;SDS011;66343;44.588;33.450;2023-07-30T03:39:53;5.35;;;1.70;;
76854;SDS011;66343;44.588;33.450;2023-07-30T03:42:22;5.85;;;2.05;;
76854;SDS011;66343;44.588;33.450;2023-07-30T03:44:57;6.32;;;2.03;;
76854;SDS011;66343;44.588;33.450;2023-07-30T03:47:31;5.20;;;1.63;;
76854;SDS011;66343;44.588;33.450;2023-07-30T03:50:00;5.38;;;1.80;;
76854;SDS011;66343;44.588;33.450;2023-07-30T03:52:31;6.53;;;1.73;;
76854;SDS011;66343;44.588;33.450;2023-07-30T03:55:07;5.65;;;1.92;;
76854;SDS011;66343;44.588;33.450;2023-07-30T03:57:36;5.47;;;1.67;;
76854;SDS011;66343;44.588;33.450;2023-07-30T04:00:10;5.85;;;1.98;;
76854;SDS011;66343;44.588;33.450;2023-07-30T04:02:42;5.10;;;1.60;;
76854;SDS011;66343;44.588;33.450;2023-07-30T04:05:13;5.20;;;1.90;;
76854;SDS011;66343;44.588;33.450;2023-07-30T04:07:42;5.03;;;1.65;;
76854;SDS011;66343;44.588;33.450;2023-07-30T04:10:11;7.03;;;2.30;;
76854;SDS011;66343;44.588;33.450;2023-07-30T04:12:40;5.55;;;1.83;;
76854;SDS011;66343;44.588;33.450;2023-07-30T04:15:09;6.60;;;1.90;;
76854;SDS011;66343;44.588;33.450;2023-07-30T04:17:46;5.38;;;2.17;;
76854;SDS011;66343;44.588;33.450;2023-07-30T04:20:18;6.50;;;2.08;;
76854;SDS011;66343;44.588;33.450;2023-07-30T04:22:53;6.22;;;2.50;;
76854;SDS011;66343;44.588;33.450;2023-07-30T04:25:21;7.47;;;2.30;;
76854;SDS011;66343;44.588;33.450;2023-07-30T04:27:53;5.60;;;2.13;;
76854;SDS011;66343;44.588;33.450;2023-07-30T04:30:25;7.35;;;2.08;;
76854;SDS011;66343;44.588;33.450;2023-07-30T04:32:54;6.72;;;2.10;;
76854;SDS011;66343;44.588;33.450;2023-07-30T04:35:27;7.55;;;2.50;;
76854;SDS011;66343;44.588;33.450;2023-07-30T04:38:00;6.15;;;2.20;;
76854;SDS011;66343;44.588;33.450;2023-07-30T04:40:30;5.85;;;1.92;;
76854;SDS011;66343;44.588;33.450;2023-07-30T04:43:00;5.70;;;1.73;;
76854;SDS011;66343;44.588;33.450;2023-07-30T04:45:33;5.65;;;1.75;;
76854;SDS011;66343;44.588;33.450;2023-07-30T04:48:04;4.82;;;1.70;;
76854;SDS011;66343;44.588;33.450;2023-07-30T04:50:38;6.00;;;1.60;;
76854;SDS011;66343;44.588;33.450;2023-07-30T04:53:10;5.32;;;1.90;;
76854;SDS011;66343;44.588;33.450;2023-07-30T04:55:42;6.95;;;2.05;;
76854;SDS011;66343;44.588;33.450;2023-07-30T04:58:15;6.43;;;1.83;;
76854;SDS011;66343;44.588;33.450;2023-07-30T05:00:48;7.35;;;1.60;;
76854;SDS011;66343;44.588;33.450;2023-07-30T05:03:22;9.52;;;2.97;;
76854;SDS011;66343;44.588;33.450;2023-07-30T05:05:59;6.18;;;1.67;;
76854;SDS011;66343;44.588;33.450;2023-07-30T05:08:35;5.43;;;1.80;;
76854;SDS011;66343;44.588;33.450;2023-07-30T05:11:09;4.65;;;1.50;;
76854;SDS011;66343;44.588;33.450;2023-07-30T05:13:40;6.82;;;1.80;;
76854;SDS011;66343;44.588;33.450;2023-07-30T05:16:35;5.85;;;1.52;;
76854;SDS011;66343;44.588;33.450;2023-07-30T05:19:06;5.85;;;1.77;;
76854;SDS011;66343;44.588;33.450;2023-07-30T05:21:38;3.63;;;1.33;;
76854;SDS011;66343;44.588;33.450;2023-07-30T05:24:07;8.93;;;4.22;;
76854;SDS011;66343;44.588;33.450;2023-07-30T05:26:36;6.10;;;1.77;;
76854;SDS011;66343;44.588;33.450;2023-07-30T05:29:08;4.38;;;1.45;;
76854;SDS011;66343;44.588;33.450;2023-07-30T05:31:46;5.95;;;1.60;;
76854;SDS011;66343;44.588;33.450;2023-07-30T05:34:20;3.95;;;1.30;;
76854;SDS011;66343;44.588;33.450;2023-07-30T05:36:48;5.45;;;1.50;;
76854;SDS011;66343;44.588;33.450;2023-07-30T05:39:23;4.18;;;1.45;;
76854;SDS011;66343;44.588;33.450;2023-07-30T05:41:54;4.45;;;1.60;;
76854;SDS011;66343;44.588;33.450;2023-07-30T05:44:25;4.30;;;1.20;;
76854;SDS011;66343;44.588;33.450;2023-07-30T05:46:57;4.53;;;1.67;;
76854;SDS011;66343;44.588;33.450;2023-07-30T05:49:30;4.93;;;1.55;;
76854;SDS011;66343;44.588;33.450;2023-07-30T05:52:03;4.40;;;1.42;;
76854;SDS011;66343;44.588;33.450;2023-07-30T05:54:38;5.60;;;1.67;;
76854;SDS011;66343;44.588;33.450;2023-07-30T05:57:10;6.28;;;1.48;;
76854;SDS011;66343;44.588;33.450;2023-07-30T05:59:46;4.55;;;1.60;;
76854;SDS011;66343;44.588;33.450;2023-07-30T06:02:16;4.55;;;1.35;;
76854;SDS011;66343;44.588;33.450;2023-07-30T06:04:45;3.47;;;1.38;;
76854;SDS011;66343;44.588;33.450;2023-07-30T06:07:18;5.82;;;1.60;;
76854;SDS011;66343;44.588;33.450;2023-07-30T06:09:52;3.90;;;1.42;;
76854;SDS011;66343;44.588;33.450;2023-07-30T06:12:21;4.93;;;1.35;;
76854;SDS011;66343;44.588;33.450;2023-07-30T06:14:53;3.55;;;1.42;;
76854;SDS011;66343;44.588;33.450;2023-07-30T06:17:27;5.03;;;1.50;;
76854;SDS011;66343;44.588;33.450;2023-07-30T06:20:01;3.45;;;1.10;;
76854;SDS011;66343;44.588;33.450;2023-07-30T06:22:37;4.90;;;1.63;;
76854;SDS011;66343;44.588;33.450;2023-07-30T06:25:16;5.05;;;1.55;;
76854;SDS011;66343;44.588;33.450;2023-07-30T06:27:52;4.95;;;1.35;;
76854;SDS011;66343;44.588;33.450;2023-07-30T06:30:32;4.22;;;1.50;;
76854;SDS011;66343;44.588;33.450;2023-07-30T06:33:06;4.60;;;1.13;;
76854;SDS011;66343;44.588;33.450;2023-07-30T06:35:45;6.93;;;1.80;;
76854;SDS011;66343;44.588;33.450;2023-07-30T06:38:19;5.22;;;2.10;;
76854;SDS011;66343;44.588;33.450;2023-07-30T06:40:50;7.20;;;1.80;;
76854;SDS011;66343;44.588;33.450;2023-07-30T06:43:27;5.90;;;1.63;;
76854;SDS011;66343;44.588;33.450;2023-07-30T06:46:01;4.07;;;1.38;;
76854;SDS011;66343;44.588;33.450;2023-07-30T06:48:33;4.18;;;1.40;;
76854;SDS011;66343;44.588;33.450;2023-07-30T06:51:06;5.10;;;1.40;;
76854;SDS011;66343;44.588;33.450;2023-07-30T06:53:38;4.32;;;1.23;;
76854;SDS011;66343;44.588;33.450;2023-07-30T06:56:10;4.32;;;1.40;;
76854;SDS011;66343;44.588;33.450;2023-07-30T06:58:41;6.93;;;1.50;;
76854;SDS011;66343;44.588;33.450;2023-07-30T07:01:12;5.65;;;1.50;;
76854;SDS011;66343;44.588;33.450;2023-07-30T07:03:46;4.85;;;1.73;;
76854;SDS011;66343;44.588;33.450;2023-07-30T07:06:21;4.47;;;1.60;;
76854;SDS011;66343;44.588;33.450;2023-07-30T07:08:50;4.50;;;1.42;;
76854;SDS011;66343;44.588;33.450;2023-07-30T07:11:27;8.50;;;1.92;;
76854;SDS011;66343;44.588;33.450;2023-07-30T07:13:56;5.22;;;1.50;;
76854;SDS011;66343;44.588;33.450;2023-07-30T07:16:29;5.55;;;1.50;;
76854;SDS011;66343;44.588;33.450;2023-07-30T07:18:59;3.97;;;1.20;;
76854;SDS011;66343;44.588;33.450;2023-07-30T07:24:11;6.13;;;1.88;;
76854;SDS011;66343;44.588;33.450;2023-07-30T07:26:43;4.68;;;1.50;;
76854;SDS011;66343;44.588;33.450;2023-07-30T07:29:27;4.57;;;1.50;;
76854;SDS011;66343;44.588;33.450;2023-07-30T07:31:57;4.05;;;1.40;;
76854;SDS011;66343;44.588;33.450;2023-07-30T07:34:29;3.78;;;1.40;;
76854;SDS011;66343;44.588;33.450;2023-07-30T07:37:02;4.60;;;1.50;;
76854;SDS011;66343;44.588;33.450;2023-07-30T07:39:36;4.63;;;1.40;;
76854;SDS011;66343;44.588;33.450;2023-07-30T07:42:10;5.53;;;2.13;;
76854;SDS011;66343;44.588;33.450;2023-07-30T07:44:48;4.13;;;1.52;;
76854;SDS011;66343;44.588;33.450;2023-07-30T07:47:20;4.47;;;1.33;;
76854;SDS011;66343;44.588;33.450;2023-07-30T07:49:52;5.47;;;1.63;;
76854;SDS011;66343;44.588;33.450;2023-07-30T07:52:25;5.15;;;1.50;;
76854;SDS011;66343;44.588;33.450;2023-07-30T07:54:57;5.78;;;1.50;;
76854;SDS011;66343;44.588;33.450;2023-07-30T07:57:27;5.63;;;1.60;;
76854;SDS011;66343;44.588;33.450;2023-07-30T07:59:58;4.07;;;1.55;;
76854;SDS011;66343;44.588;33.450;2023-07-30T08:02:41;3.88;;;1.30;;
76854;SDS011;66343;44.588;33.450;2023-07-30T08:05:10;4.63;;;1.42;;
76854;SDS011;66343;44.588;33.450;2023-07-30T08:07:39;5.07;;;1.60;;
76854;SDS011;66343;44.588;33.450;2023-07-30T08:10:08;5.78;;;1.38;;
76854;SDS011;66343;44.588;33.450;2023-07-30T08:12:37;4.35;;;1.70;;
76854;SDS011;66343;44.588;33.450;2023-07-30T08:15:06;5.38;;;1.38;;
76854;SDS011;66343;44.588;33.450;2023-07-30T08:17:36;4.05;;;1.52;;
76854;SDS011;66343;44.588;33.450;2023-07-30T08:20:06;3.58;;;1.30;;
76854;SDS011;66343;44.588;33.450;2023-07-30T08:22:35;4.80;;;1.63;;
76854;SDS011;66343;44.588;33.450;2023-07-30T08:25:07;4.90;;;1.40;;
76854;SDS011;66343;44.588;33.450;2023-07-30T08:27:36;3.85;;;1.27;;
76854;SDS011;66343;44.588;33.450;2023-07-30T08:30:06;4.55;;;1.38;;
76854;SDS011;66343;44.588;33.450;2023-07-30T08:32:36;4.75;;;1.55;;
76854;SDS011;66343;44.588;33.450;2023-07-30T08:35:09;5.00;;;1.35;;
76854;SDS011;66343;44.588;33.450;2023-07-30T08:37:44;5.28;;;1.58;;
76854;SDS011;66343;44.588;33.450;2023-07-30T08:40:18;4.40;;;1.40;;
76854;SDS011;66343;44.588;33.450;2023-07-30T08:42:53;4.28;;;1.40;;
76854;SDS011;66343;44.588;33.450;2023-07-30T08:45:25;5.00;;;1.33;;
76854;SDS011;66343;44.588;33.450;2023-07-30T08:47:58;4.68;;;1.33;;
76854;SDS011;66343;44.588;33.450;2023-07-30T08:50:30;3.88;;;1.50;;
76854;SDS011;66343;44.588;33.450;2023-07-30T08:53:00;3.58;;;1.27;;
76854;SDS011;66343;44.588;33.450;2023-07-30T08:55:34;4.70;;;1.48;;
76854;SDS011;66343;44.588;33.450;2023-07-30T08:58:09;4.18;;;1.20;;
76854;SDS011;66343;44.588;33.450;2023-07-30T09:00:40;4.75;;;1.35;;
76854;SDS011;66343;44.588;33.450;2023-07-30T09:03:10;6.18;;;1.83;;
76854;SDS011;66343;44.588;33.450;2023-07-30T09:05:43;3.45;;;1.20;;
76854;SDS011;66343;44.588;33.450;2023-07-30T09:08:18;5.47;;;1.60;;
76854;SDS011;66343;44.588;33.450;2023-07-30T09:10:47;4.43;;;1.15;;
76854;SDS011;66343;44.588;33.450;2023-07-30T09:13:22;4.07;;;1.33;;
76854;SDS011;66343;44.588;33.450;2023-07-30T09:15:51;3.40;;;1.35;;
76854;SDS011;66343;44.588;33.450;2023-07-30T09:18:20;4.30;;;1.60;;
76854;SDS011;66343;44.588;33.450;2023-07-30T09:20:52;3.80;;;1.20;;
76854;SDS011;66343;44.588;33.450;2023-07-30T09:23:23;5.03;;;1.58;;
76854;SDS011;66343;44.588;33.450;2023-07-30T09:26:00;4.00;;;1.17;;
76854;SDS011;66343;44.588;33.450;2023-07-30T09:28:33;4.18;;;1.35;;
76854;SDS011;66343;44.588;33.450;2023-07-30T09:31:10;5.05;;;1.60;;
76854;SDS011;66343;44.588;33.450;2023-07-30T09:34:05;5.13;;;1.73;;
76854;SDS011;66343;44.588;33.450;2023-07-30T09:36:34;5.07;;;1.40;;
76854;SDS011;66343;44.588;33.450;2023-07-30T09:39:03;4.28;;;1.60;;
76854;SDS011;66343;44.588;33.450;2023-07-30T09:41:47;5.43;;;1.95;;
76854;SDS011;66343;44.588;33.450;2023-07-30T09:44:22;3.13;;;1.23;;
76854;SDS011;66343;44.588;33.450;2023-07-30T09:46:52;4.63;;;1.60;;
76854;SDS011;66343;44.588;33.450;2023-07-30T09:49:25;5.25;;;1.40;;
76854;SDS011;66343;44.588;33.450;2023-07-30T09:51:54;3.53;;;1.23;;
76854;SDS011;66343;44.588;33.450;2023-07-30T09:54:28;3.40;;;1.17;;
76854;SDS011;66343;44.588;33.450;2023-07-30T09:57:02;4.28;;;1.45;;
76854;SDS011;66343;44.588;33.450;2023-07-30T09:59:32;4.05;;;1.30;;
76854;SDS011;66343;44.588;33.450;2023-07-30T10:02:04;5.95;;;1.65;;
76854;SDS011;66343;44.588;33.450;2023-07-30T10:04:34;4.65;;;1.23;;
76854;SDS011;66343;44.588;33.450;2023-07-30T10:07:14;5.75;;;1.88;;
76854;SDS011;66343;44.588;33.450;2023-07-30T10:10:12;4.55;;;1.50;;
76854;SDS011;66343;44.588;33.450;2023-07-30T10:12:46;5.55;;;1.40;;
76854;SDS011;66343;44.588;33.450;2023-07-30T10:15:20;5.18;;;1.55;;
76854;SDS011;66343;44.588;33.450;2023-07-30T10:17:51;4.97;;;1.80;;
76854;SDS011;66343;44.588;33.450;2023-07-30T10:20:26;5.10;;;1.45;;
76854;SDS011;66343;44.588;33.450;2023-07-30T10:22:59;4.20;;;1.42;;
76854;SDS011;66343;44.588;33.450;2023-07-30T10:25:51;5.43;;;1.63;;
76854;SDS011;66343;44.588;33.450;2023-07-30T10:28:33;5.07;;;1.58;;
76854;SDS011;66343;44.588;33.450;2023-07-30T10:31:06;5.78;;;1.67;;
76854;SDS011;66343;44.588;33.450;2023-07-30T10:33:53;4.25;;;1.50;;
76854;SDS011;66343;44.588;33.450;2023-07-30T10:39:14;5.40;;;1.88;;
76854;SDS011;66343;44.588;33.450;2023-07-30T10:41:51;6.10;;;1.60;;
76854;SDS011;66343;44.588;33.450;2023-07-30T10:44:30;3.95;;;1.42;;
76854;SDS011;66343;44.588;33.450;2023-07-30T10:47:03;6.65;;;1.90;;
76854;SDS011;66343;44.588;33.450;2023-07-30T10:50:02;4.70;;;1.50;;
76854;SDS011;66343;44.588;33.450;2023-07-30T10:55:04;5.50;;;1.70;;
76854;SDS011;66343;44.588;33.450;2023-07-30T10:57:36;5.10;;;1.55;;
76854;SDS011;66343;44.588;33.450;2023-07-30T11:00:12;6.13;;;1.83;;
76854;SDS011;66343;44.588;33.450;2023-07-30T11:02:52;5.07;;;1.58;;
76854;SDS011;66343;44.588;33.450;2023-07-30T11:05:25;4.15;;;1.45;;
76854;SDS011;66343;44.588;33.450;2023-07-30T11:10:26;5.05;;;1.80;;
76854;SDS011;66343;44.588;33.450;2023-07-30T11:13:02;4.68;;;1.60;;
76854;SDS011;66343;44.588;33.450;2023-07-30T11:15:40;3.72;;;1.35;;
76854;SDS011;66343;44.588;33.450;2023-07-30T11:18:17;3.88;;;1.40;;
76854;SDS011;66343;44.588;33.450;2023-07-30T11:20:49;4.07;;;1.55;;
76854;SDS011;66343;44.588;33.450;2023-07-30T11:23:30;4.10;;;1.58;;
76854;SDS011;66343;44.588;33.450;2023-07-30T11:26:00;4.63;;;1.60;;
76854;SDS011;66343;44.588;33.450;2023-07-30T11:28:39;4.32;;;1.55;;
76854;SDS011;66343;44.588;33.450;2023-07-30T11:31:13;7.22;;;3.80;;
76854;SDS011;66343;44.588;33.450;2023-07-30T11:33:50;4.75;;;1.90;;
76854;SDS011;66343;44.588;33.450;2023-07-30T11:36:22;5.57;;;1.75;;
76854;SDS011;66343;44.588;33.450;2023-07-30T11:38:56;5.10;;;1.90;;
76854;SDS011;66343;44.588;33.450;2023-07-30T11:41:25;5.45;;;1.73;;
76854;SDS011;66343;44.588;33.450;2023-07-30T11:43:58;6.65;;;1.98;;
76854;SDS011;66343;44.588;33.450;2023-07-30T11:46:27;6.28;;;2.10;;
76854;SDS011;66343;44.588;33.450;2023-07-30T11:49:14;6.45;;;1.90;;
76854;SDS011;66343;44.588;33.450;2023-07-30T11:51:50;5.78;;;2.00;;
76854;SDS011;66343;44.588;33.450;2023-07-30T11:54:22;5.13;;;2.00;;
76854;SDS011;66343;44.588;33.450;2023-07-30T11:56:55;9.55;;;2.13;;
76854;SDS011;66343;44.588;33.450;2023-07-30T11:59:25;4.63;;;1.50;;
76854;SDS011;66343;44.588;33.450;2023-07-30T12:02:01;5.10;;;1.75;;
76854;SDS011;66343;44.588;33.450;2023-07-30T12:04:42;7.55;;;1.90;;
76854;SDS011;66343;44.588;33.450;2023-07-30T12:07:24;5.43;;;2.00;;
76854;SDS011;66343;44.588;33.450;2023-07-30T12:12:35;9.00;;;1.90;;
76854;SDS011;66343;44.588;33.450;2023-07-30T12:15:09;4.35;;;1.63;;
76854;SDS011;66343;44.588;33.450;2023-07-30T12:17:41;4.40;;;1.55;;
76854;SDS011;66343;44.588;33.450;2023-07-30T12:20:13;6.13;;;2.35;;
76854;SDS011;66343;44.588;33.450;2023-07-30T12:22:45;4.50;;;1.73;;
76854;SDS011;66343;44.588;33.450;2023-07-30T12:25:14;5.53;;;2.05;;
